sensor_id;sensor_type;location;lat;lon;timestamp;P1;durP1;ratioP1;P2;durP2;ratioP2
5555;SDS011;2801;50.972;7.856;2024-02-14T00:01:12;4.63;;;3.13;;
5555;SDS011;2801;50.972;7.856;2024-02-14T00:03:39;8.90;;;3.20;;
5555;SDS011;2801;50.972;7.856;2024-02-14T00:06:07;6.63;;;3.17;;
5555;SDS011;2801;50.972;7.856;2024-02-14T00:08:34;9.47;;;3.10;;
5555;SDS011;2801;50.972;7.856;2024-02-14T00:11:02;7.15;;;3.00;;
5555;SDS011;2801;50.972;7.856;2024-02-14T00:13:29;6.93;;;3.10;;
5555;SDS011;2801;50.972;7.856;2024-02-14T00:15:56;7.20;;;3.17;;
5555;SDS011;2801;50.972;7.856;2024-02-14T00:18:23;6.10;;;3.50;;
5555;SDS011;2801;50.972;7.856;2024-02-14T00:20:50;4.77;;;2.80;;
5555;SDS011;2801;50.972;7.856;2024-02-14T00:23:17;9.77;;;3.27;;
5555;SDS011;2801;50.972;7.856;2024-02-14T00:25:45;6.87;;;2.90;;
5555;SDS011;2801;50.972;7.856;2024-02-14T00:28:11;7.43;;;3.33;;
5555;SDS011;2801;50.972;7.856;2024-02-14T00:30:38;5.93;;;3.37;;
5555;SDS011;2801;50.972;7.856;2024-02-14T00:33:05;8.43;;;3.07;;
5555;SDS011;2801;50.972;7.856;2024-02-14T00:35:33;7.93;;;3.53;;
5555;SDS011;2801;50.972;7.856;2024-02-14T00:38:00;6.53;;;2.93;;
5555;SDS011;2801;50.972;7.856;2024-02-14T00:40:27;6.20;;;2.80;;
5555;SDS011;2801;50.972;7.856;2024-02-14T00:42:54;5.87;;;2.70;;
5555;SDS011;2801;50.972;7.856;2024-02-14T00:45:21;3.90;;;2.42;;
5555;SDS011;2801;50.972;7.856;2024-02-14T00:47:48;4.67;;;2.77;;
5555;SDS011;2801;50.972;7.856;2024-02-14T00:50:15;5.93;;;2.80;;
5555;SDS011;2801;50.972;7.856;2024-02-14T00:52:42;7.17;;;3.37;;
5555;SDS011;2801;50.972;7.856;2024-02-14T00:55:09;4.47;;;2.50;;
5555;SDS011;2801;50.972;7.856;2024-02-14T00:57:37;5.23;;;2.60;;
5555;SDS011;2801;50.972;7.856;2024-02-14T01:00:06;4.93;;;2.70;;
5555;SDS011;2801;50.972;7.856;2024-02-14T01:02:33;4.33;;;2.50;;
5555;SDS011;2801;50.972;7.856;2024-02-14T01:05:01;3.63;;;2.37;;
5555;SDS011;2801;50.972;7.856;2024-02-14T01:07:28;5.20;;;2.53;;
5555;SDS011;2801;50.972;7.856;2024-02-14T01:09:55;4.27;;;2.50;;
5555;SDS011;2801;50.972;7.856;2024-02-14T01:12:22;4.73;;;2.37;;
5555;SDS011;2801;50.972;7.856;2024-02-14T01:14:49;3.30;;;2.10;;
5555;SDS011;2801;50.972;7.856;2024-02-14T01:17:16;5.10;;;2.50;;
5555;SDS011;2801;50.972;7.856;2024-02-14T01:19:43;5.77;;;2.60;;
5555;SDS011;2801;50.972;7.856;2024-02-14T01:22:10;4.60;;;2.30;;
5555;SDS011;2801;50.972;7.856;2024-02-14T01:24:37;4.40;;;1.97;;
5555;SDS011;2801;50.972;7.856;2024-02-14T01:27:05;4.43;;;2.40;;
5555;SDS011;2801;50.972;7.856;2024-02-14T01:29:32;6.53;;;2.23;;
5555;SDS011;2801;50.972;7.856;2024-02-14T01:32:00;3.57;;;2.33;;
5555;SDS011;2801;50.972;7.856;2024-02-14T01:34:27;7.47;;;2.53;;
5555;SDS011;2801;50.972;7.856;2024-02-14T01:36:56;4.00;;;2.03;;
5555;SDS011;2801;50.972;7.856;2024-02-14T01:39:23;3.67;;;2.00;;
5555;SDS011;2801;50.972;7.856;2024-02-14T01:41:50;5.20;;;2.13;;
5555;SDS011;2801;50.972;7.856;2024-02-14T01:44:17;4.53;;;2.00;;
5555;SDS011;2801;50.972;7.856;2024-02-14T01:46:45;3.20;;;2.00;;
5555;SDS011;2801;50.972;7.856;2024-02-14T01:49:12;3.97;;;1.80;;
5555;SDS011;2801;50.972;7.856;2024-02-14T01:51:42;4.13;;;2.00;;
5555;SDS011;2801;50.972;7.856;2024-02-14T01:54:11;2.80;;;1.77;;
5555;SDS011;2801;50.972;7.856;2024-02-14T01:56:40;6.40;;;2.53;;
5555;SDS011;2801;50.972;7.856;2024-02-14T01:59:08;5.17;;;2.30;;
5555;SDS011;2801;50.972;7.856;2024-02-14T02:01:36;4.07;;;1.97;;
5555;SDS011;2801;50.972;7.856;2024-02-14T02:04:03;4.27;;;1.97;;
5555;SDS011;2801;50.972;7.856;2024-02-14T02:06:31;4.47;;;2.40;;
5555;SDS011;2801;50.972;7.856;2024-02-14T02:08:59;4.43;;;2.20;;
5555;SDS011;2801;50.972;7.856;2024-02-14T02:11:27;3.40;;;1.63;;
5555;SDS011;2801;50.972;7.856;2024-02-14T02:13:54;5.37;;;2.40;;
5555;SDS011;2801;50.972;7.856;2024-02-14T02:16:21;2.90;;;1.93;;
5555;SDS011;2801;50.972;7.856;2024-02-14T02:18:49;4.40;;;2.10;;
5555;SDS011;2801;50.972;7.856;2024-02-14T02:21:16;4.27;;;2.00;;
5555;SDS011;2801;50.972;7.856;2024-02-14T02:23:46;4.20;;;1.93;;
5555;SDS011;2801;50.972;7.856;2024-02-14T02:26:13;5.17;;;1.80;;
5555;SDS011;2801;50.972;7.856;2024-02-14T02:28:41;3.63;;;1.93;;
5555;SDS011;2801;50.972;7.856;2024-02-14T02:31:09;6.50;;;1.80;;
5555;SDS011;2801;50.972;7.856;2024-02-14T02:33:36;8.03;;;2.30;;
5555;SDS011;2801;50.972;7.856;2024-02-14T02:36:03;4.40;;;1.73;;
5555;SDS011;2801;50.972;7.856;2024-02-14T02:38:32;3.93;;;1.70;;
5555;SDS011;2801;50.972;7.856;2024-02-14T02:40:59;5.00;;;1.80;;
5555;SDS011;2801;50.972;7.856;2024-02-14T02:43:26;4.43;;;1.87;;
5555;SDS011;2801;50.972;7.856;2024-02-14T02:45:54;2.90;;;1.73;;
5555;SDS011;2801;50.972;7.856;2024-02-14T02:48:21;3.33;;;1.80;;
5555;SDS011;2801;50.972;7.856;2024-02-14T02:50:49;5.00;;;1.80;;
5555;SDS011;2801;50.972;7.856;2024-02-14T02:53:17;5.50;;;1.63;;
5555;SDS011;2801;50.972;7.856;2024-02-14T02:55:45;4.40;;;1.80;;
5555;SDS011;2801;50.972;7.856;2024-02-14T02:58:12;7.07;;;1.97;;
5555;SDS011;2801;50.972;7.856;2024-02-14T03:00:39;2.73;;;2.03;;
5555;SDS011;2801;50.972;7.856;2024-02-14T03:03:09;4.73;;;1.67;;
5555;SDS011;2801;50.972;7.856;2024-02-14T03:05:37;4.90;;;1.83;;
5555;SDS011;2801;50.972;7.856;2024-02-14T03:08:05;4.18;;;1.88;;
5555;SDS011;2801;50.972;7.856;2024-02-14T03:10:33;5.00;;;2.03;;
5555;SDS011;2801;50.972;7.856;2024-02-14T03:13:00;3.77;;;1.73;;
5555;SDS011;2801;50.972;7.856;2024-02-14T03:15:27;3.33;;;2.07;;
5555;SDS011;2801;50.972;7.856;2024-02-14T03:17:55;6.23;;;2.00;;
5555;SDS011;2801;50.972;7.856;2024-02-14T03:20:22;3.87;;;2.00;;
5555;SDS011;2801;50.972;7.856;2024-02-14T03:22:49;3.03;;;1.80;;
5555;SDS011;2801;50.972;7.856;2024-02-14T03:25:17;3.37;;;1.90;;
5555;SDS011;2801;50.972;7.856;2024-02-14T03:27:45;3.70;;;1.83;;
5555;SDS011;2801;50.972;7.856;2024-02-14T03:30:14;4.23;;;2.00;;
5555;SDS011;2801;50.972;7.856;2024-02-14T03:32:43;3.53;;;1.80;;
5555;SDS011;2801;50.972;7.856;2024-02-14T03:35:10;5.30;;;1.90;;
5555;SDS011;2801;50.972;7.856;2024-02-14T03:37:42;4.57;;;1.70;;
5555;SDS011;2801;50.972;7.856;2024-02-14T03:40:14;6.00;;;2.30;;
5555;SDS011;2801;50.972;7.856;2024-02-14T03:42:41;3.90;;;1.90;;
5555;SDS011;2801;50.972;7.856;2024-02-14T03:45:08;3.73;;;1.90;;
5555;SDS011;2801;50.972;7.856;2024-02-14T03:47:36;3.07;;;2.00;;
5555;SDS011;2801;50.972;7.856;2024-02-14T03:50:09;3.87;;;2.00;;
5555;SDS011;2801;50.972;7.856;2024-02-14T03:52:37;2.27;;;1.70;;
5555;SDS011;2801;50.972;7.856;2024-02-14T03:55:04;3.37;;;2.07;;
5555;SDS011;2801;50.972;7.856;2024-02-14T03:57:32;4.60;;;1.87;;
5555;SDS011;2801;50.972;7.856;2024-02-14T04:00:01;4.40;;;1.60;;
5555;SDS011;2801;50.972;7.856;2024-02-14T04:02:30;5.23;;;1.90;;
5555;SDS011;2801;50.972;7.856;2024-02-14T04:04:58;5.00;;;2.30;;
5555;SDS011;2801;50.972;7.856;2024-02-14T04:07:25;4.23;;;1.70;;
5555;SDS011;2801;50.972;7.856;2024-02-14T04:09:52;3.97;;;1.87;;
5555;SDS011;2801;50.972;7.856;2024-02-14T04:12:20;11.73;;;2.50;;
5555;SDS011;2801;50.972;7.856;2024-02-14T04:14:47;4.10;;;1.90;;
5555;SDS011;2801;50.972;7.856;2024-02-14T04:17:14;3.90;;;1.90;;
5555;SDS011;2801;50.972;7.856;2024-02-14T04:19:41;3.50;;;2.43;;
5555;SDS011;2801;50.972;7.856;2024-02-14T04:22:08;3.47;;;2.10;;
5555;SDS011;2801;50.972;7.856;2024-02-14T04:24:35;4.23;;;2.50;;
5555;SDS011;2801;50.972;7.856;2024-02-14T04:27:03;6.30;;;2.50;;
5555;SDS011;2801;50.972;7.856;2024-02-14T04:29:31;4.93;;;2.33;;
5555;SDS011;2801;50.972;7.856;2024-02-14T04:32:00;3.90;;;2.00;;
5555;SDS011;2801;50.972;7.856;2024-02-14T04:34:28;3.57;;;2.20;;
5555;SDS011;2801;50.972;7.856;2024-02-14T04:36:56;5.23;;;2.80;;
5555;SDS011;2801;50.972;7.856;2024-02-14T04:39:24;4.20;;;2.20;;
5555;SDS011;2801;50.972;7.856;2024-02-14T04:41:50;4.80;;;2.60;;
5555;SDS011;2801;50.972;7.856;2024-02-14T04:44:27;3.73;;;2.33;;
5555;SDS011;2801;50.972;7.856;2024-02-14T04:46:55;3.03;;;2.10;;
5555;SDS011;2801;50.972;7.856;2024-02-14T04:49:25;5.83;;;2.73;;
5555;SDS011;2801;50.972;7.856;2024-02-14T04:51:52;6.97;;;2.87;;
5555;SDS011;2801;50.972;7.856;2024-02-14T04:54:20;5.60;;;2.60;;
5555;SDS011;2801;50.972;7.856;2024-02-14T04:56:47;3.17;;;2.27;;
5555;SDS011;2801;50.972;7.856;2024-02-14T04:59:21;5.87;;;2.77;;
5555;SDS011;2801;50.972;7.856;2024-02-14T05:01:48;5.70;;;2.67;;
5555;SDS011;2801;50.972;7.856;2024-02-14T05:04:15;4.93;;;2.70;;
5555;SDS011;2801;50.972;7.856;2024-02-14T05:06:43;5.10;;;3.00;;
5555;SDS011;2801;50.972;7.856;2024-02-14T05:09:10;6.90;;;2.87;;
5555;SDS011;2801;50.972;7.856;2024-02-14T05:11:37;4.20;;;3.03;;
5555;SDS011;2801;50.972;7.856;2024-02-14T05:14:04;6.27;;;3.07;;
5555;SDS011;2801;50.972;7.856;2024-02-14T05:16:31;7.00;;;2.90;;
5555;SDS011;2801;50.972;7.856;2024-02-14T05:18:58;6.40;;;3.50;;
5555;SDS011;2801;50.972;7.856;2024-02-14T05:21:25;8.50;;;2.80;;
5555;SDS011;2801;50.972;7.856;2024-02-14T05:23:53;6.33;;;3.17;;
5555;SDS011;2801;50.972;7.856;2024-02-14T05:26:20;5.87;;;3.60;;
5555;SDS011;2801;50.972;7.856;2024-02-14T05:28:47;4.67;;;3.03;;
5555;SDS011;2801;50.972;7.856;2024-02-14T05:31:15;7.07;;;3.10;;
5555;SDS011;2801;50.972;7.856;2024-02-14T05:33:43;8.50;;;2.97;;
5555;SDS011;2801;50.972;7.856;2024-02-14T05:36:10;7.10;;;3.20;;
5555;SDS011;2801;50.972;7.856;2024-02-14T05:38:37;3.83;;;3.00;;
5555;SDS011;2801;50.972;7.856;2024-02-14T05:41:04;6.30;;;3.30;;
5555;SDS011;2801;50.972;7.856;2024-02-14T05:43:33;5.47;;;3.40;;
5555;SDS011;2801;50.972;7.856;2024-02-14T05:46:01;5.63;;;3.17;;
5555;SDS011;2801;50.972;7.856;2024-02-14T05:48:28;7.03;;;3.67;;
5555;SDS011;2801;50.972;7.856;2024-02-14T05:50:55;5.73;;;3.40;;
5555;SDS011;2801;50.972;7.856;2024-02-14T05:53:22;6.87;;;3.30;;
5555;SDS011;2801;50.972;7.856;2024-02-14T05:55:49;8.27;;;3.70;;
5555;SDS011;2801;50.972;7.856;2024-02-14T05:58:16;8.27;;;3.83;;
5555;SDS011;2801;50.972;7.856;2024-02-14T06:00:43;9.50;;;4.33;;
5555;SDS011;2801;50.972;7.856;2024-02-14T06:03:10;6.77;;;3.60;;
5555;SDS011;2801;50.972;7.856;2024-02-14T06:05:37;7.53;;;3.80;;
5555;SDS011;2801;50.972;7.856;2024-02-14T06:08:05;6.13;;;4.03;;
5555;SDS011;2801;50.972;7.856;2024-02-14T06:10:32;11.67;;;4.00;;
5555;SDS011;2801;50.972;7.856;2024-02-14T06:13:00;9.10;;;3.63;;
5555;SDS011;2801;50.972;7.856;2024-02-14T06:15:27;10.53;;;3.73;;
5555;SDS011;2801;50.972;7.856;2024-02-14T06:17:54;8.77;;;3.67;;
5555;SDS011;2801;50.972;7.856;2024-02-14T06:20:21;6.87;;;4.00;;
5555;SDS011;2801;50.972;7.856;2024-02-14T06:22:49;6.80;;;3.40;;
5555;SDS011;2801;50.972;7.856;2024-02-14T06:25:29;6.80;;;4.47;;
5555;SDS011;2801;50.972;7.856;2024-02-14T06:27:56;7.93;;;3.73;;
5555;SDS011;2801;50.972;7.856;2024-02-14T06:30:23;6.97;;;3.83;;
5555;SDS011;2801;50.972;7.856;2024-02-14T06:32:56;8.50;;;4.20;;
5555;SDS011;2801;50.972;7.856;2024-02-14T06:35:27;7.70;;;3.60;;
5555;SDS011;2801;50.972;7.856;2024-02-14T06:37:56;8.73;;;4.00;;
5555;SDS011;2801;50.972;7.856;2024-02-14T06:40:30;7.53;;;3.93;;
5555;SDS011;2801;50.972;7.856;2024-02-14T06:42:57;8.17;;;4.00;;
5555;SDS011;2801;50.972;7.856;2024-02-14T06:45:26;8.80;;;3.73;;
5555;SDS011;2801;50.972;7.856;2024-02-14T06:47:56;8.27;;;3.87;;
5555;SDS011;2801;50.972;7.856;2024-02-14T06:50:23;7.20;;;3.90;;
5555;SDS011;2801;50.972;7.856;2024-02-14T06:52:54;6.60;;;3.53;;
5555;SDS011;2801;50.972;7.856;2024-02-14T06:55:26;10.23;;;3.73;;
5555;SDS011;2801;50.972;7.856;2024-02-14T06:57:53;6.70;;;4.10;;
5555;SDS011;2801;50.972;7.856;2024-02-14T07:00:20;5.60;;;3.77;;
5555;SDS011;2801;50.972;7.856;2024-02-14T07:02:48;7.13;;;4.10;;
5555;SDS011;2801;50.972;7.856;2024-02-14T07:05:15;7.17;;;3.90;;
5555;SDS011;2801;50.972;7.856;2024-02-14T07:07:42;8.47;;;4.27;;
5555;SDS011;2801;50.972;7.856;2024-02-14T07:10:09;8.30;;;4.40;;
5555;SDS011;2801;50.972;7.856;2024-02-14T07:12:36;9.57;;;4.40;;
5555;SDS011;2801;50.972;7.856;2024-02-14T07:15:03;7.00;;;4.23;;
5555;SDS011;2801;50.972;7.856;2024-02-14T07:17:32;6.70;;;3.67;;
5555;SDS011;2801;50.972;7.856;2024-02-14T07:19:59;7.63;;;4.13;;
5555;SDS011;2801;50.972;7.856;2024-02-14T07:22:28;6.70;;;3.93;;
5555;SDS011;2801;50.972;7.856;2024-02-14T07:24:57;7.17;;;4.13;;
5555;SDS011;2801;50.972;7.856;2024-02-14T07:27:24;8.70;;;3.90;;
5555;SDS011;2801;50.972;7.856;2024-02-14T07:29:50;9.23;;;4.40;;
5555;SDS011;2801;50.972;7.856;2024-02-14T07:32:18;6.63;;;4.23;;
5555;SDS011;2801;50.972;7.856;2024-02-14T07:34:46;7.05;;;4.55;;
5555;SDS011;2801;50.972;7.856;2024-02-14T07:37:13;7.93;;;4.77;;
5555;SDS011;2801;50.972;7.856;2024-02-14T07:39:45;5.77;;;3.90;;
5555;SDS011;2801;50.972;7.856;2024-02-14T07:42:13;5.82;;;4.07;;
5555;SDS011;2801;50.972;7.856;2024-02-14T07:44:41;8.80;;;4.20;;
5555;SDS011;2801;50.972;7.856;2024-02-14T07:47:09;8.30;;;3.97;;
5555;SDS011;2801;50.972;7.856;2024-02-14T07:49:36;16.17;;;4.53;;
5555;SDS011;2801;50.972;7.856;2024-02-14T07:52:03;10.87;;;4.43;;
5555;SDS011;2801;50.972;7.856;2024-02-14T07:54:30;6.85;;;4.72;;
5555;SDS011;2801;50.972;7.856;2024-02-14T07:56:57;9.07;;;4.28;;
5555;SDS011;2801;50.972;7.856;2024-02-14T07:59:24;12.23;;;4.53;;
5555;SDS011;2801;50.972;7.856;2024-02-14T08:01:54;10.47;;;4.60;;
5555;SDS011;2801;50.972;7.856;2024-02-14T08:04:21;8.73;;;4.00;;
5555;SDS011;2801;50.972;7.856;2024-02-14T08:06:47;6.43;;;4.20;;
5555;SDS011;2801;50.972;7.856;2024-02-14T08:09:17;8.43;;;4.90;;
5555;SDS011;2801;50.972;7.856;2024-02-14T08:11:44;10.33;;;4.70;;
5555;SDS011;2801;50.972;7.856;2024-02-14T08:14:11;11.00;;;4.85;;
5555;SDS011;2801;50.972;7.856;2024-02-14T08:16:38;9.25;;;4.72;;
5555;SDS011;2801;50.972;7.856;2024-02-14T08:19:05;9.10;;;4.80;;
5555;SDS011;2801;50.972;7.856;2024-02-14T08:21:33;7.07;;;4.57;;
5555;SDS011;2801;50.972;7.856;2024-02-14T08:24:00;8.40;;;4.47;;
5555;SDS011;2801;50.972;7.856;2024-02-14T08:26:27;9.37;;;5.00;;
5555;SDS011;2801;50.972;7.856;2024-02-14T08:28:55;8.50;;;4.63;;
5555;SDS011;2801;50.972;7.856;2024-02-14T08:31:22;10.37;;;4.63;;
5555;SDS011;2801;50.972;7.856;2024-02-14T08:33:49;9.87;;;4.70;;
5555;SDS011;2801;50.972;7.856;2024-02-14T08:36:17;9.38;;;4.75;;
5555;SDS011;2801;50.972;7.856;2024-02-14T08:38:46;10.07;;;4.40;;
5555;SDS011;2801;50.972;7.856;2024-02-14T08:41:14;6.97;;;3.95;;
5555;SDS011;2801;50.972;7.856;2024-02-14T08:43:41;9.15;;;4.15;;
5555;SDS011;2801;50.972;7.856;2024-02-14T08:46:12;9.13;;;4.55;;
5555;SDS011;2801;50.972;7.856;2024-02-14T08:48:40;8.32;;;3.58;;
5555;SDS011;2801;50.972;7.856;2024-02-14T08:51:15;12.93;;;4.43;;
5555;SDS011;2801;50.972;7.856;2024-02-14T08:53:43;11.48;;;4.90;;
5555;SDS011;2801;50.972;7.856;2024-02-14T08:56:12;7.97;;;4.28;;
5555;SDS011;2801;50.972;7.856;2024-02-14T08:58:40;8.13;;;3.95;;
5555;SDS011;2801;50.972;7.856;2024-02-14T09:01:08;9.13;;;5.05;;
5555;SDS011;2801;50.972;7.856;2024-02-14T09:03:43;7.65;;;4.20;;
5555;SDS011;2801;50.972;7.856;2024-02-14T09:06:16;7.07;;;4.27;;
5555;SDS011;2801;50.972;7.856;2024-02-14T09:08:45;9.13;;;4.25;;
5555;SDS011;2801;50.972;7.856;2024-02-14T09:11:13;6.75;;;3.70;;
5555;SDS011;2801;50.972;7.856;2024-02-14T09:13:40;6.82;;;3.60;;
5555;SDS011;2801;50.972;7.856;2024-02-14T09:16:10;8.05;;;3.80;;
5555;SDS011;2801;50.972;7.856;2024-02-14T09:18:37;6.20;;;3.78;;
5555;SDS011;2801;50.972;7.856;2024-02-14T09:21:05;8.93;;;4.00;;
5555;SDS011;2801;50.972;7.856;2024-02-14T09:23:33;7.30;;;3.40;;
5555;SDS011;2801;50.972;7.856;2024-02-14T09:26:01;5.47;;;3.53;;
5555;SDS011;2801;50.972;7.856;2024-02-14T09:28:29;4.68;;;3.22;;
5555;SDS011;2801;50.972;7.856;2024-02-14T09:30:56;12.63;;;3.60;;
5555;SDS011;2801;50.972;7.856;2024-02-14T09:33:23;6.25;;;3.72;;
5555;SDS011;2801;50.972;7.856;2024-02-14T09:35:51;7.35;;;3.47;;
5555;SDS011;2801;50.972;7.856;2024-02-14T09:38:19;6.00;;;3.35;;
5555;SDS011;2801;50.972;7.856;2024-02-14T09:40:46;6.78;;;2.90;;
5555;SDS011;2801;50.972;7.856;2024-02-14T09:43:38;8.57;;;3.50;;
5555;SDS011;2801;50.972;7.856;2024-02-14T09:46:11;4.90;;;3.00;;
5555;SDS011;2801;50.972;7.856;2024-02-14T09:48:42;6.75;;;3.00;;
5555;SDS011;2801;50.972;7.856;2024-02-14T09:51:12;5.97;;;3.92;;
5555;SDS011;2801;50.972;7.856;2024-02-14T09:53:40;5.30;;;2.85;;
5555;SDS011;2801;50.972;7.856;2024-02-14T09:56:08;5.75;;;3.05;;
5555;SDS011;2801;50.972;7.856;2024-02-14T09:58:42;5.95;;;2.80;;
5555;SDS011;2801;50.972;7.856;2024-02-14T10:01:15;3.60;;;2.50;;
5555;SDS011;2801;50.972;7.856;2024-02-14T10:03:46;5.75;;;2.90;;
5555;SDS011;2801;50.972;7.856;2024-02-14T10:06:13;6.25;;;2.80;;
5555;SDS011;2801;50.972;7.856;2024-02-14T10:08:40;4.10;;;2.80;;
5555;SDS011;2801;50.972;7.856;2024-02-14T10:11:21;6.03;;;2.92;;
5555;SDS011;2801;50.972;7.856;2024-02-14T10:13:49;4.18;;;2.90;;
5555;SDS011;2801;50.972;7.856;2024-02-14T10:16:18;6.55;;;2.80;;
5555;SDS011;2801;50.972;7.856;2024-02-14T10:18:48;4.43;;;2.90;;
5555;SDS011;2801;50.972;7.856;2024-02-14T10:21:16;6.28;;;3.25;;
5555;SDS011;2801;50.972;7.856;2024-02-14T10:23:50;3.35;;;2.65;;
5555;SDS011;2801;50.972;7.856;2024-02-14T10:26:18;4.55;;;2.60;;
5555;SDS011;2801;50.972;7.856;2024-02-14T10:28:47;3.50;;;2.35;;
5555;SDS011;2801;50.972;7.856;2024-02-14T10:31:17;5.93;;;2.55;;
5555;SDS011;2801;50.972;7.856;2024-02-14T10:33:47;8.35;;;2.65;;
5555;SDS011;2801;50.972;7.856;2024-02-14T10:36:15;4.15;;;2.85;;
5555;SDS011;2801;50.972;7.856;2024-02-14T10:38:43;7.53;;;4.40;;
5555;SDS011;2801;50.972;7.856;2024-02-14T10:41:16;5.45;;;2.28;;
5555;SDS011;2801;50.972;7.856;2024-02-14T10:43:44;2.53;;;2.00;;
5555;SDS011;2801;50.972;7.856;2024-02-14T10:46:21;2.63;;;2.15;;
5555;SDS011;2801;50.972;7.856;2024-02-14T10:48:57;3.67;;;2.00;;
5555;SDS011;2801;50.972;7.856;2024-02-14T10:51:31;4.68;;;2.38;;
5555;SDS011;2801;50.972;7.856;2024-02-14T10:54:03;5.50;;;2.50;;
5555;SDS011;2801;50.972;7.856;2024-02-14T10:56:38;5.30;;;2.15;;
5555;SDS011;2801;50.972;7.856;2024-02-14T10:59:11;7.43;;;1.95;;
5555;SDS011;2801;50.972;7.856;2024-02-14T11:01:44;2.72;;;1.50;;
5555;SDS011;2801;50.972;7.856;2024-02-14T11:04:13;7.18;;;2.08;;
5555;SDS011;2801;50.972;7.856;2024-02-14T11:06:46;5.05;;;1.70;;
5555;SDS011;2801;50.972;7.856;2024-02-14T11:09:15;10.18;;;2.13;;
5555;SDS011;2801;50.972;7.856;2024-02-14T11:11:42;2.65;;;1.80;;
5555;SDS011;2801;50.972;7.856;2024-02-14T11:14:12;2.55;;;1.67;;
5555;SDS011;2801;50.972;7.856;2024-02-14T11:16:45;3.00;;;1.70;;
5555;SDS011;2801;50.972;7.856;2024-02-14T11:19:13;2.63;;;1.80;;
5555;SDS011;2801;50.972;7.856;2024-02-14T11:21:43;1.85;;;1.50;;
5555;SDS011;2801;50.972;7.856;2024-02-14T11:24:14;3.72;;;1.58;;
5555;SDS011;2801;50.972;7.856;2024-02-14T11:26:48;2.50;;;1.27;;
5555;SDS011;2801;50.972;7.856;2024-02-14T11:29:18;1.90;;;1.50;;
5555;SDS011;2801;50.972;7.856;2024-02-14T11:31:57;1.83;;;1.50;;
5555;SDS011;2801;50.972;7.856;2024-02-14T11:34:26;4.00;;;1.58;;
5555;SDS011;2801;50.972;7.856;2024-02-14T11:36:55;1.90;;;1.50;;
5555;SDS011;2801;50.972;7.856;2024-02-14T11:39:22;1.60;;;1.20;;
5555;SDS011;2801;50.972;7.856;2024-02-14T11:41:49;2.17;;;1.50;;
5555;SDS011;2801;50.972;7.856;2024-02-14T11:44:16;1.98;;;1.45;;
5555;SDS011;2801;50.972;7.856;2024-02-14T11:46:46;1.92;;;1.20;;
5555;SDS011;2801;50.972;7.856;2024-02-14T11:49:13;3.53;;;1.13;;
5555;SDS011;2801;50.972;7.856;2024-02-14T11:51:40;1.60;;;1.20;;
5555;SDS011;2801;50.972;7.856;2024-02-14T11:54:07;3.67;;;1.23;;
5555;SDS011;2801;50.972;7.856;2024-02-14T11:56:36;3.15;;;1.20;;
5555;SDS011;2801;50.972;7.856;2024-02-14T11:59:05;4.03;;;1.13;;
5555;SDS011;2801;50.972;7.856;2024-02-14T12:01:34;1.25;;;1.00;;
5555;SDS011;2801;50.972;7.856;2024-02-14T12:04:07;4.22;;;1.02;;
5555;SDS011;2801;50.972;7.856;2024-02-14T12:06:39;1.92;;;0.70;;
5555;SDS011;2801;50.972;7.856;2024-02-14T12:09:08;1.80;;;0.90;;
5555;SDS011;2801;50.972;7.856;2024-02-14T12:11:36;2.95;;;0.75;;
5555;SDS011;2801;50.972;7.856;2024-02-14T12:14:07;1.13;;;0.90;;
5555;SDS011;2801;50.972;7.856;2024-02-14T12:16:36;5.47;;;0.90;;
5555;SDS011;2801;50.972;7.856;2024-02-14T12:19:07;1.65;;;1.00;;
5555;SDS011;2801;50.972;7.856;2024-02-14T12:21:43;1.70;;;0.77;;
5555;SDS011;2801;50.972;7.856;2024-02-14T12:24:12;3.38;;;1.20;;
5555;SDS011;2801;50.972;7.856;2024-02-14T12:26:41;3.92;;;1.30;;
5555;SDS011;2801;50.972;7.856;2024-02-14T12:29:11;2.95;;;1.30;;
5555;SDS011;2801;50.972;7.856;2024-02-14T12:31:40;4.75;;;1.50;;
5555;SDS011;2801;50.972;7.856;2024-02-14T12:34:10;2.50;;;1.20;;
5555;SDS011;2801;50.972;7.856;2024-02-14T12:36:38;3.50;;;1.30;;
5555;SDS011;2801;50.972;7.856;2024-02-14T12:39:05;4.07;;;1.38;;
5555;SDS011;2801;50.972;7.856;2024-02-14T12:41:32;6.18;;;1.73;;
5555;SDS011;2801;50.972;7.856;2024-02-14T12:44:02;1.98;;;1.58;;
5555;SDS011;2801;50.972;7.856;2024-02-14T12:46:29;3.45;;;1.60;;
5555;SDS011;2801;50.972;7.856;2024-02-14T12:48:56;2.72;;;1.52;;
5555;SDS011;2801;50.972;7.856;2024-02-14T12:51:23;3.83;;;1.70;;
5555;SDS011;2801;50.972;7.856;2024-02-14T12:53:55;3.90;;;1.70;;
5555;SDS011;2801;50.972;7.856;2024-02-14T12:56:22;2.47;;;1.73;;
5555;SDS011;2801;50.972;7.856;2024-02-14T12:58:50;3.25;;;1.52;;
5555;SDS011;2801;50.972;7.856;2024-02-14T13:01:17;2.40;;;1.58;;
5555;SDS011;2801;50.972;7.856;2024-02-14T13:03:44;2.42;;;1.75;;
5555;SDS011;2801;50.972;7.856;2024-02-14T13:06:12;2.05;;;1.70;;
5555;SDS011;2801;50.972;7.856;2024-02-14T13:08:40;2.95;;;2.00;;
5555;SDS011;2801;50.972;7.856;2024-02-14T13:11:08;2.20;;;1.90;;
5555;SDS011;2801;50.972;7.856;2024-02-14T13:13:35;3.75;;;1.88;;
5555;SDS011;2801;50.972;7.856;2024-02-14T13:16:03;3.55;;;2.15;;
5555;SDS011;2801;50.972;7.856;2024-02-14T13:18:33;4.60;;;2.25;;
5555;SDS011;2801;50.972;7.856;2024-02-14T13:21:01;5.35;;;2.00;;
5555;SDS011;2801;50.972;7.856;2024-02-14T13:23:29;3.25;;;2.08;;
5555;SDS011;2801;50.972;7.856;2024-02-14T13:25:57;2.97;;;1.85;;
5555;SDS011;2801;50.972;7.856;2024-02-14T13:28:24;2.78;;;1.70;;
5555;SDS011;2801;50.972;7.856;2024-02-14T13:30:51;2.38;;;1.80;;
5555;SDS011;2801;50.972;7.856;2024-02-14T13:33:21;1.95;;;1.75;;
5555;SDS011;2801;50.972;7.856;2024-02-14T13:35:49;2.58;;;1.73;;
5555;SDS011;2801;50.972;7.856;2024-02-14T13:38:16;5.00;;;2.40;;
5555;SDS011;2801;50.972;7.856;2024-02-14T13:40:43;2.70;;;1.75;;
5555;SDS011;2801;50.972;7.856;2024-02-14T13:43:10;3.05;;;1.80;;
5555;SDS011;2801;50.972;7.856;2024-02-14T13:45:42;3.25;;;1.77;;
5555;SDS011;2801;50.972;7.856;2024-02-14T13:48:11;3.78;;;2.10;;
5555;SDS011;2801;50.972;7.856;2024-02-14T13:50:39;6.65;;;2.08;;
5555;SDS011;2801;50.972;7.856;2024-02-14T13:53:06;3.67;;;1.92;;
5555;SDS011;2801;50.972;7.856;2024-02-14T13:55:33;3.55;;;2.20;;
5555;SDS011;2801;50.972;7.856;2024-02-14T13:58:01;2.85;;;2.03;;
5555;SDS011;2801;50.972;7.856;2024-02-14T14:00:28;3.08;;;2.00;;
5555;SDS011;2801;50.972;7.856;2024-02-14T14:02:55;3.00;;;2.00;;
5555;SDS011;2801;50.972;7.856;2024-02-14T14:05:22;3.05;;;2.28;;
5555;SDS011;2801;50.972;7.856;2024-02-14T14:07:50;3.78;;;2.38;;
5555;SDS011;2801;50.972;7.856;2024-02-14T14:10:24;4.65;;;2.60;;
5555;SDS011;2801;50.972;7.856;2024-02-14T14:12:54;6.15;;;3.10;;
5555;SDS011;2801;50.972;7.856;2024-02-14T14:15:22;3.88;;;2.55;;
5555;SDS011;2801;50.972;7.856;2024-02-14T14:17:50;5.32;;;2.60;;
5555;SDS011;2801;50.972;7.856;2024-02-14T14:20:18;3.40;;;2.58;;
5555;SDS011;2801;50.972;7.856;2024-02-14T14:22:46;3.58;;;2.50;;
5555;SDS011;2801;50.972;7.856;2024-02-14T14:25:13;6.60;;;2.78;;
5555;SDS011;2801;50.972;7.856;2024-02-14T14:27:41;4.65;;;2.58;;
5555;SDS011;2801;50.972;7.856;2024-02-14T14:30:09;4.30;;;2.83;;
5555;SDS011;2801;50.972;7.856;2024-02-14T14:32:37;4.55;;;2.70;;
5555;SDS011;2801;50.972;7.856;2024-02-14T14:35:06;3.35;;;2.75;;
5555;SDS011;2801;50.972;7.856;2024-02-14T14:37:36;4.88;;;2.67;;
5555;SDS011;2801;50.972;7.856;2024-02-14T14:40:04;4.38;;;3.00;;
5555;SDS011;2801;50.972;7.856;2024-02-14T14:42:35;5.53;;;3.28;;
5555;SDS011;2801;50.972;7.856;2024-02-14T14:45:03;5.10;;;3.03;;
5555;SDS011;2801;50.972;7.856;2024-02-14T14:47:30;5.10;;;3.28;;
5555;SDS011;2801;50.972;7.856;2024-02-14T14:49:58;4.85;;;3.08;;
5555;SDS011;2801;50.972;7.856;2024-02-14T14:52:25;4.97;;;3.00;;
5555;SDS011;2801;50.972;7.856;2024-02-14T14:54:52;4.57;;;2.55;;
5555;SDS011;2801;50.972;7.856;2024-02-14T14:57:20;4.18;;;2.95;;
5555;SDS011;2801;50.972;7.856;2024-02-14T14:59:48;4.70;;;3.20;;
5555;SDS011;2801;50.972;7.856;2024-02-14T15:02:15;4.47;;;2.78;;
5555;SDS011;2801;50.972;7.856;2024-02-14T15:04:43;3.92;;;2.88;;
5555;SDS011;2801;50.972;7.856;2024-02-14T15:07:12;6.53;;;2.95;;
5555;SDS011;2801;50.972;7.856;2024-02-14T15:09:42;3.60;;;2.83;;
5555;SDS011;2801;50.972;7.856;2024-02-14T15:12:09;5.22;;;2.42;;
5555;SDS011;2801;50.972;7.856;2024-02-14T15:14:36;3.53;;;2.97;;
5555;SDS011;2801;50.972;7.856;2024-02-14T15:17:04;3.65;;;2.55;;
5555;SDS011;2801;50.972;7.856;2024-02-14T15:19:31;4.15;;;2.78;;
5555;SDS011;2801;50.972;7.856;2024-02-14T15:21:58;4.15;;;2.92;;